Terminal Aerodrome Forecast
Issued by NWS Columbia, SC

Home | Current Version | Previous Version | Text Only | Print | Product List | Glossary On
Versions: 1 2 3 4 5 6 7 8 9 10 11 12 13 14 15 16 17 18 19 20 21 22 23 24 25 26 27 28 29 30 31 32 33 34 35 36 37 38
040
FTUS42 KCAE 201120
TAFCAE
TAF
KCAE 201120Z 2012/2112 16004KT P6SM OVC008
     FM201400 19004KT P6SM BKN015
     FM201600 18007KT P6SM BKN040
     FM210100 17003KT P6SM OVC040=

USA.gov is the U.S. government's official web portal to all federal, state and local government web resources and services.